createdAt,value
2022-08-10T00:00:53.555Z,97375.56
2022-08-10T00:03:21.080Z,97374.19
2022-08-10T00:05:52.673Z,97372.59
2022-08-10T00:08:23.644Z,97380.56
2022-08-10T00:10:51.859Z,97371.66
2022-08-10T00:13:19.459Z,97366.00
2022-08-10T00:15:53.398Z,97376.88
2022-08-10T00:18:31.499Z,97380.25
2022-08-10T00:21:03.151Z,97373.53
2022-08-10T00:23:30.768Z,97377.47
2022-08-10T00:25:58.330Z,97384.41
2022-08-10T00:28:25.844Z,97384.16
2022-08-10T00:30:53.492Z,97377.72
2022-08-10T00:33:22.107Z,97382.69
2022-08-10T00:35:51.354Z,97372.06
2022-08-10T00:38:18.942Z,97376.31
2022-08-10T00:40:47.106Z,97373.66
2022-08-10T00:43:14.668Z,97376.00
2022-08-10T00:45:42.225Z,97370.91
2022-08-10T00:48:10.786Z,97369.75
2022-08-10T00:50:38.812Z,97372.06
2022-08-10T00:53:08.105Z,97372.31
2022-08-10T00:57:09.100Z,97369.09
2022-08-10T00:58:25.020Z,97368.50
2022-08-10T01:00:53.744Z,97365.47
2022-08-10T01:04:36.584Z,97366.25
2022-08-10T01:06:16.028Z,97368.81
2022-08-10T01:08:52.422Z,97351.41
2022-08-10T01:12:27.638Z,97356.38
2022-08-10T01:14:22.784Z,97357.28
2022-08-10T01:16:55.397Z,97362.28
2022-08-10T01:19:43.479Z,97355.31
2022-08-10T01:22:41.207Z,97355.81
2022-08-10T01:26:11.415Z,97357.88
2022-08-10T01:28:35.030Z,97355.44
2022-08-10T01:31:05.473Z,97351.41
2022-08-10T01:33:58.877Z,97356.94
2022-08-10T01:36:32.401Z,97353.13
2022-08-10T01:39:03.946Z,97358.91
2022-08-10T01:41:45.863Z,97354.50
2022-08-10T01:44:20.548Z,97356.00
2022-08-10T01:46:57.243Z,97353.81
2022-08-10T01:49:26.574Z,97348.94
2022-08-10T01:52:00.528Z,97359.81
2022-08-10T01:54:30.029Z,97351.50
2022-08-10T01:57:00.840Z,97354.94
2022-08-10T01:59:33.639Z,97352.75
2022-08-10T02:02:05.862Z,97358.28
2022-08-10T02:04:36.959Z,97358.97
2022-08-10T02:07:08.482Z,97354.13
2022-08-10T02:09:40.330Z,97357.00
2022-08-10T02:12:10.617Z,97359.88
2022-08-10T02:14:43.045Z,97358.28
2022-08-10T02:17:59.529Z,97358.44
2022-08-10T02:20:05.016Z,97361.09
2022-08-10T02:22:36.039Z,97354.19
2022-08-10T02:25:07.183Z,97363.16
2022-08-10T02:27:35.142Z,97357.88
2022-08-10T02:30:05.793Z,97356.28
2022-08-10T02:32:38.162Z,97350.38
2022-08-10T02:35:19.410Z,97346.09
2022-08-10T02:37:52.671Z,97351.66
2022-08-10T02:45:15.316Z,97344.94
2022-08-10T02:45:23.630Z,97344.13
2022-08-10T02:46:13.969Z,97347.00
2022-08-10T02:48:49.926Z,97341.94
2022-08-10T02:52:07.708Z,97344.22
2022-08-10T02:54:25.211Z,97348.94
2022-08-10T02:56:56.063Z,97348.38
2022-08-10T02:59:39.773Z,97346.75
2022-08-10T03:02:11.706Z,97346.19
2022-08-10T03:04:55.157Z,97346.41
2022-08-10T03:07:43.281Z,97345.81
2022-08-10T03:10:18.645Z,97343.63
2022-08-10T03:12:50.684Z,97339.59
2022-08-10T03:15:20.562Z,97339.59
2022-08-10T03:17:57.237Z,97341.66
2022-08-10T03:20:33.909Z,97346.13
2022-08-10T03:23:10.744Z,97346.94
2022-08-10T03:25:39.129Z,97350.63
2022-08-10T03:28:07.958Z,97349.81
2022-08-10T03:30:36.431Z,97347.38
2022-08-10T03:33:05.746Z,97354.53
2022-08-10T03:35:35.435Z,97357.41
2022-08-10T03:38:03.870Z,97360.03
2022-08-10T03:40:46.227Z,97360.63
2022-08-10T03:43:18.295Z,97352.84
2022-08-10T03:45:55.648Z,97358.25
2022-08-10T03:48:42.436Z,97355.72
2022-08-10T03:51:15.528Z,97360.00
2022-08-10T03:54:04.402Z,97352.06
2022-08-10T03:56:32.969Z,97357.56
2022-08-10T03:59:01.063Z,97359.84
2022-08-10T04:02:41.446Z,97357.09
2022-08-10T04:04:22.739Z,97358.78
2022-08-10T04:06:55.000Z,97351.75
2022-08-10T04:09:23.618Z,97360.13
2022-08-10T04:11:51.176Z,97354.50
2022-08-10T04:14:38.843Z,97356.09
2022-08-10T04:17:09.559Z,97362.19
2022-08-10T04:19:45.085Z,97368.31
2022-08-10T04:22:17.676Z,97369.34
2022-08-10T04:24:47.375Z,97369.56
2022-08-10T04:27:15.809Z,97370.81
2022-08-10T04:32:47.829Z,97384.28
2022-08-10T04:35:18.847Z,97378.53
2022-08-10T04:37:50.114Z,97380.97
2022-08-10T04:40:28.660Z,97380.97
2022-08-10T04:43:02.161Z,97376.91
2022-08-10T04:45:49.081Z,97377.75
2022-08-10T04:48:43.016Z,97375.69
2022-08-10T04:51:10.799Z,97382.56
2022-08-10T04:54:02.816Z,97381.78
2022-08-10T04:56:32.518Z,97384.06
2022-08-10T04:59:00.352Z,97382.66
2022-08-10T05:02:27.026Z,97387.59
2022-08-10T05:04:35.922Z,97392.06
2022-08-10T05:07:03.266Z,97390.09
2022-08-10T05:09:32.133Z,97396.66
2022-08-10T05:11:59.685Z,97398.50
2022-08-10T05:14:27.549Z,97397.91
2022-08-10T05:16:56.813Z,97394.44
2022-08-10T05:20:02.359Z,97393.63
2022-08-10T05:22:11.913Z,97390.19
2022-08-10T05:24:40.808Z,97399.72
2022-08-10T05:27:09.966Z,97385.25
2022-08-10T05:29:38.341Z,97384.81
2022-08-10T05:32:06.306Z,97380.09
2022-08-10T05:34:33.917Z,97379.06
2022-08-10T05:37:02.282Z,97383.13
2022-08-10T05:39:32.128Z,97375.75
2022-08-10T05:44:35.357Z,97380.97
2022-08-10T05:47:02.938Z,97379.72
2022-08-10T05:49:30.547Z,97379.25
2022-08-10T05:58:04.539Z,97381.81
2022-08-10T06:00:40.777Z,97387.50
2022-08-10T06:03:15.708Z,97380.72
2022-08-10T06:05:45.549Z,97393.28
2022-08-10T06:08:16.934Z,97385.72
2022-08-10T06:12:28.113Z,97390.31
2022-08-10T06:13:59.987Z,97379.25
2022-08-10T06:16:43.164Z,97380.81
2022-08-10T06:19:14.718Z,97384.97
2022-08-10T06:21:54.413Z,97395.72
2022-08-10T06:24:31.254Z,97391.13
2022-08-10T06:26:59.267Z,97391.84
2022-08-10T06:29:30.398Z,97398.09
2022-08-10T06:32:00.999Z,97391.06
2022-08-10T06:34:32.849Z,97392.81
2022-08-10T06:37:02.469Z,97390.03
2022-08-10T06:39:34.948Z,97382.56
2022-08-10T06:42:16.090Z,97390.97
2022-08-10T06:44:49.596Z,97382.09
2022-08-10T06:47:23.148Z,97389.72
2022-08-10T06:49:59.561Z,97398.97
2022-08-10T06:52:30.929Z,97394.94
2022-08-10T06:55:00.648Z,97394.31
2022-08-10T06:57:31.932Z,97397.44
2022-08-10T07:00:02.784Z,97393.41
2022-08-10T07:02:45.207Z,97380.56
2022-08-10T07:05:18.213Z,97391.84
2022-08-10T07:07:47.694Z,97385.59
2022-08-10T07:10:20.408Z,97384.19
2022-08-10T07:12:49.254Z,97388.88
2022-08-10T07:15:18.306Z,97375.47
2022-08-10T07:17:48.269Z,97384.94
2022-08-10T07:20:18.527Z,97380.63
2022-08-10T07:23:27.399Z,97381.34
2022-08-10T07:25:40.507Z,97375.97
2022-08-10T07:28:09.277Z,97383.06
2022-08-10T07:30:39.141Z,97383.50
2022-08-10T07:33:09.069Z,97386.31
2022-08-10T07:35:42.594Z,97388.13
2022-08-10T07:38:13.860Z,97389.88
2022-08-10T07:40:43.213Z,97386.53
2022-08-10T07:43:11.915Z,97381.63
2022-08-10T07:45:40.961Z,97387.59
2022-08-10T07:48:14.915Z,97385.31
2022-08-10T07:50:44.536Z,97383.03
2022-08-10T07:53:18.149Z,97391.88
2022-08-10T07:56:01.729Z,97397.06
2022-08-10T07:58:39.291Z,97390.28
2022-08-10T08:01:08.099Z,97395.97
2022-08-10T08:03:37.907Z,97392.28
2022-08-10T08:06:11.657Z,97392.09
2022-08-10T08:08:41.608Z,97398.06
2022-08-10T08:11:10.308Z,97395.44
2022-08-10T08:13:56.861Z,97385.94
2022-08-10T08:16:25.413Z,97383.88
2022-08-10T08:24:08.638Z,97384.13
2022-08-10T08:24:36.494Z,97392.75
2022-08-10T08:27:06.084Z,97385.94
2022-08-10T08:29:36.472Z,97395.06
2022-08-10T08:32:05.632Z,97388.72
2022-08-10T08:34:37.312Z,97380.50
2022-08-10T08:37:06.570Z,97386.16
2022-08-10T08:39:36.836Z,97385.44
2022-08-10T08:42:16.297Z,97378.31
2022-08-10T08:45:00.333Z,97382.06
2022-08-10T08:48:03.363Z,97374.09
2022-08-10T08:50:48.245Z,97372.28
2022-08-10T08:53:24.034Z,97372.91
2022-08-10T08:56:24.834Z,97390.34
2022-08-10T08:59:09.685Z,97368.47
2022-08-10T09:01:55.176Z,97377.09
2022-08-10T09:04:38.955Z,97382.97
2022-08-10T09:07:59.064Z,97383.56
2022-08-10T09:10:37.547Z,97388.13
2022-08-10T09:13:10.777Z,97382.53
2022-08-10T09:15:47.920Z,97381.19
2022-08-10T09:18:22.744Z,97376.13
2022-08-10T09:20:56.287Z,97375.34
2022-08-10T09:24:04.308Z,97385.78
2022-08-10T09:26:23.321Z,97380.44
2022-08-10T09:29:11.742Z,97377.75
2022-08-10T09:35:43.285Z,97384.72
2022-08-10T09:36:25.148Z,97378.31
2022-08-10T09:38:01.162Z,97374.03
2022-08-10T09:40:59.413Z,97370.28
2022-08-10T09:43:32.239Z,97375.63
2022-08-10T09:46:11.947Z,97358.22
2022-08-10T09:48:51.456Z,97371.88
2022-08-10T09:51:47.057Z,97374.06
2022-08-10T09:54:42.170Z,97362.03
2022-08-10T09:57:43.986Z,97384.25
2022-08-10T10:00:14.733Z,97373.53
2022-08-10T10:02:58.730Z,97373.25
2022-08-10T10:05:37.366Z,97370.06
2022-08-10T10:08:14.329Z,97351.06
2022-08-10T10:10:52.844Z,97358.56
2022-08-10T10:13:52.886Z,97345.16
2022-08-10T10:16:41.291Z,97350.50
2022-08-10T10:19:28.412Z,97365.78
2022-08-10T10:22:13.904Z,97370.31
2022-08-10T10:24:46.581Z,97365.75
2022-08-10T10:27:27.133Z,97360.66
2022-08-10T10:30:01.375Z,97366.00
2022-08-10T10:32:42.423Z,97364.41
2022-08-10T10:35:17.352Z,97354.75
2022-08-10T10:38:01.027Z,97353.13
2022-08-10T10:40:36.184Z,97343.19
2022-08-10T10:43:16.610Z,97342.91
2022-08-10T10:45:58.367Z,97343.97
2022-08-10T10:48:39.613Z,97331.09
2022-08-10T10:51:13.890Z,97330.25
2022-08-10T10:53:50.673Z,97331.03
2022-08-10T10:56:26.090Z,97333.16
2022-08-10T10:59:33.446Z,97334.72
2022-08-10T11:02:02.745Z,97337.13
2022-08-10T11:04:40.720Z,97326.16
2022-08-10T11:07:21.952Z,97336.09
2022-08-10T11:10:31.927Z,97337.94
2022-08-10T11:13:06.865Z,97330.72
2022-08-10T11:15:58.587Z,97334.78
2022-08-10T11:18:34.096Z,97317.88
2022-08-10T11:21:24.081Z,97315.19
2022-08-10T11:24:47.263Z,97341.19
2022-08-10T11:26:49.859Z,97330.94
2022-08-10T11:29:24.527Z,97319.44
2022-08-10T11:32:01.247Z,97327.22
2022-08-10T11:34:49.125Z,97326.72
2022-08-10T11:38:34.436Z,97315.75
2022-08-10T11:40:29.134Z,97324.59
2022-08-10T11:43:06.944Z,97319.78
2022-08-10T11:45:37.374Z,97316.84
2022-08-10T11:48:53.923Z,97321.94
2022-08-10T11:51:22.178Z,97313.63
2022-08-10T11:53:58.075Z,97310.66
2022-08-10T11:56:30.991Z,97310.13
2022-08-10T11:59:17.615Z,97320.84
2022-08-10T12:01:48.616Z,97312.00
2022-08-10T12:04:18.016Z,97306.91
2022-08-10T12:06:56.454Z,97309.88
2022-08-10T12:10:12.096Z,97305.84
2022-08-10T12:12:14.276Z,97299.38
2022-08-10T12:14:47.453Z,97295.91
2022-08-10T12:17:19.664Z,97303.69
2022-08-10T12:20:02.834Z,97296.69
2022-08-10T12:22:37.212Z,97288.38
2022-08-10T12:25:10.327Z,97292.66
2022-08-10T12:27:42.665Z,97295.88
2022-08-10T12:30:14.504Z,97285.97
2022-08-10T12:32:49.657Z,97302.06
2022-08-10T12:35:26.305Z,97296.66
2022-08-10T12:38:06.096Z,97300.94
2022-08-10T12:40:40.991Z,97302.03
2022-08-10T12:44:06.743Z,97294.81
2022-08-10T12:46:08.211Z,97285.44
2022-08-10T12:48:40.093Z,97286.50
2022-08-10T12:51:14.235Z,97276.03
2022-08-10T12:53:51.069Z,97283.28
2022-08-10T12:56:25.138Z,97284.94
2022-08-10T12:58:57.901Z,97272.59
2022-08-10T13:02:06.246Z,97275.03
2022-08-10T13:04:25.230Z,97270.47
2022-08-10T13:06:54.413Z,97270.47
2022-08-10T13:09:25.936Z,97265.09
2022-08-10T13:12:44.405Z,97262.69
2022-08-10T13:14:50.701Z,97270.47
2022-08-10T13:17:24.554Z,97261.31
2022-08-10T13:20:13.603Z,97255.41
2022-08-10T13:22:43.248Z,97254.06
2022-08-10T13:25:14.696Z,97252.97
2022-08-10T13:28:01.085Z,97247.59
2022-08-10T13:30:35.708Z,97250.59
2022-08-10T13:33:06.798Z,97247.38
2022-08-10T13:35:35.757Z,97251.66
2022-08-10T13:38:04.622Z,97239.34
2022-08-10T13:40:34.255Z,97239.34
2022-08-10T13:43:07.028Z,97230.78
2022-08-10T13:45:40.175Z,97218.44
2022-08-10T13:48:11.239Z,97214.69
2022-08-10T13:50:41.495Z,97229.41
2022-08-10T13:53:15.179Z,97223.47
2022-08-10T13:55:54.842Z,97233.41
2022-08-10T13:58:25.742Z,97231.81
2022-08-10T14:00:56.993Z,97228.03
2022-08-10T14:03:26.125Z,97225.09
2022-08-10T14:05:56.077Z,97225.38
2022-08-10T14:08:27.425Z,97208.75
2022-08-10T14:11:11.134Z,97214.13
2022-08-10T14:13:44.880Z,97212.22
2022-08-10T14:16:13.965Z,97199.91
2022-08-10T14:18:44.975Z,97204.47
2022-08-10T14:21:13.425Z,97205.28
2022-08-10T14:23:41.957Z,97211.97
2022-08-10T14:26:21.259Z,97192.66
2022-08-10T14:28:53.475Z,97185.47
2022-08-10T14:31:25.056Z,97196.19
2022-08-10T14:33:57.081Z,97180.09
2022-08-10T14:36:30.227Z,97186.25
2022-08-10T14:39:01.638Z,97178.72
2022-08-10T14:42:03.001Z,97176.56
2022-08-10T14:44:21.925Z,97181.94
2022-08-10T14:46:55.722Z,97168.53
2022-08-10T14:49:27.078Z,97178.19
2022-08-10T14:52:01.717Z,97178.19
2022-08-10T14:54:32.203Z,97172.56
2022-08-10T14:57:11.468Z,97183.31
2022-08-10T15:00:24.112Z,97173.66
2022-08-10T15:02:40.205Z,97167.78
2022-08-10T15:05:20.650Z,97167.50
2022-08-10T15:07:59.426Z,97170.16
2022-08-10T15:10:28.941Z,97163.22
2022-08-10T15:12:59.049Z,97163.22
2022-08-10T15:15:31.309Z,97162.94
2022-08-10T15:18:18.601Z,97165.63
2022-08-10T15:20:56.915Z,97161.34
2022-08-10T15:23:31.014Z,97162.66
2022-08-10T15:26:05.922Z,97165.34
2022-08-10T15:29:23.048Z,97163.72
2022-08-10T15:31:34.300Z,97152.22
2022-08-10T15:34:23.293Z,97157.84
2022-08-10T15:37:40.768Z,97157.34
2022-08-10T15:40:25.834Z,97158.69
2022-08-10T15:43:20.176Z,97153.09
2022-08-10T15:46:00.944Z,97150.97
2022-08-10T15:48:33.606Z,97149.66
2022-08-10T15:51:06.259Z,97136.81
2022-08-10T15:53:46.942Z,97134.13
2022-08-10T15:56:28.109Z,97136.81
2022-08-10T15:59:08.180Z,97139.19
2022-08-10T16:02:04.495Z,97134.91
2022-08-10T16:04:36.945Z,97131.16
2022-08-10T16:07:06.293Z,97129.28
2022-08-10T16:10:24.514Z,97138.66
2022-08-10T16:12:34.128Z,97128.50
2022-08-10T16:15:08.989Z,97122.91
2022-08-10T16:17:55.259Z,97129.63
2022-08-10T16:20:27.695Z,97127.00
2022-08-10T16:22:57.904Z,97125.66
2022-08-10T16:25:47.903Z,97128.34
2022-08-10T16:28:23.326Z,97132.91
2022-08-10T16:30:54.779Z,97129.72
2022-08-10T16:33:53.579Z,97130.25
2022-08-10T16:36:18.533Z,97122.53
2022-08-10T16:38:49.338Z,97122.53
2022-08-10T16:42:00.270Z,97121.72
2022-08-10T16:44:11.207Z,97106.72
2022-08-10T16:46:43.241Z,97113.69
2022-08-10T16:49:12.769Z,97117.16
2022-08-10T16:51:42.103Z,97115.56
2022-08-10T16:54:11.171Z,97116.38
2022-08-10T16:56:48.479Z,97115.84
2022-08-10T16:59:20.631Z,97110.22
2022-08-10T17:01:53.585Z,97115.34
2022-08-10T17:04:24.357Z,97122.31
2022-08-10T17:06:56.398Z,97119.09
2022-08-10T17:09:27.717Z,97119.94
2022-08-10T17:11:58.185Z,97125.03
2022-08-10T17:14:28.251Z,97112.22
2022-08-10T17:17:00.262Z,97118.63
2022-08-10T17:19:30.810Z,97117.03
2022-08-10T17:22:00.038Z,97114.09
2022-08-10T17:24:31.596Z,97113.84
2022-08-10T17:28:04.947Z,97114.38
2022-08-10T17:30:03.440Z,97110.13
2022-08-10T17:32:44.849Z,97114.94
2022-08-10T17:35:23.177Z,97120.56
2022-08-10T17:37:57.368Z,97118.72
2022-08-10T17:40:27.385Z,97117.41
2022-08-10T17:42:56.153Z,97115.25
2022-08-10T17:45:48.284Z,97115.00
2022-08-10T17:48:14.748Z,97113.66
2022-08-10T17:50:49.290Z,97123.88
2022-08-10T17:53:19.868Z,97127.06
2022-08-10T17:55:53.887Z,97128.41
2022-08-10T17:58:24.976Z,97124.94
2022-08-10T18:00:57.259Z,97133.25
2022-08-10T18:03:45.133Z,97125.19
2022-08-10T18:06:16.778Z,97118.78
2022-08-10T18:08:48.448Z,97130.03
2022-08-10T18:11:20.853Z,97125.25
2022-08-10T18:13:56.347Z,97125.78
2022-08-10T18:16:27.349Z,97124.44
2022-08-10T18:19:00.851Z,97124.16
2022-08-10T18:21:32.119Z,97118.59
2022-08-10T18:24:04.444Z,97123.66
2022-08-10T18:26:36.478Z,97126.59
2022-08-10T18:29:07.358Z,97130.34
2022-08-10T18:31:37.263Z,97130.63
2022-08-10T18:34:07.110Z,97133.31
2022-08-10T18:36:45.326Z,97130.63
2022-08-10T18:39:15.490Z,97137.56
2022-08-10T18:42:04.704Z,97141.34
2022-08-10T18:44:37.258Z,97144.00
2022-08-10T18:47:10.845Z,97143.75
2022-08-10T18:49:50.858Z,97147.16
2022-08-10T18:52:23.420Z,97154.38
2022-08-10T18:54:54.635Z,97154.41
2022-08-10T18:57:33.262Z,97150.38
2022-08-10T19:00:09.386Z,97147.16
2022-08-10T19:03:12.711Z,97154.09
2022-08-10T19:06:03.858Z,97164.78
2022-08-10T19:08:49.091Z,97161.53
2022-08-10T19:11:25.318Z,97161.00
2022-08-10T19:13:59.705Z,97160.44
2022-08-10T19:16:36.598Z,97168.41
2022-08-10T19:19:26.331Z,97161.44
2022-08-10T19:22:02.062Z,97169.94
2022-08-10T19:24:44.901Z,97173.91
2022-08-10T19:27:22.244Z,97174.13
2022-08-10T19:30:11.622Z,97170.59
2022-08-10T19:32:53.213Z,97170.22
2022-08-10T19:35:30.941Z,97181.66
2022-08-10T19:38:07.261Z,97178.88
2022-08-10T19:40:57.766Z,97180.94
2022-08-10T19:44:00.534Z,97172.84
2022-08-10T19:46:32.798Z,97171.72
2022-08-10T19:49:05.192Z,97173.50
2022-08-10T19:51:42.583Z,97179.28
2022-08-10T19:54:18.577Z,97169.88
2022-08-10T19:56:59.420Z,97171.69
2022-08-10T20:00:16.125Z,97166.78
2022-08-10T20:02:24.289Z,97163.03
2022-08-10T20:05:01.196Z,97169.34
2022-08-10T20:07:37.084Z,97174.38
2022-08-10T20:10:12.291Z,97176.50
2022-08-10T20:12:49.503Z,97173.53
2022-08-10T20:15:28.071Z,97174.50
2022-08-10T20:18:00.174Z,97172.88
2022-08-10T20:20:33.692Z,97180.78
2022-08-10T20:23:12.237Z,97178.88
2022-08-10T20:25:43.508Z,97182.84
2022-08-10T20:28:19.718Z,97187.03
2022-08-10T20:30:51.371Z,97190.44
2022-08-10T20:33:27.558Z,97192.00
2022-08-10T20:36:02.358Z,97190.59
2022-08-10T20:38:36.822Z,97188.59
2022-08-10T20:41:23.801Z,97188.00
2022-08-10T20:44:04.798Z,97195.13
2022-08-10T20:46:36.798Z,97187.84
2022-08-10T20:49:23.293Z,97200.34
2022-08-10T20:51:58.089Z,97200.84
2022-08-10T20:54:33.679Z,97196.56
2022-08-10T20:57:54.244Z,97184.00
2022-08-10T21:00:36.443Z,97180.50
2022-08-10T21:03:32.915Z,97188.94
2022-08-10T21:06:21.272Z,97191.53
2022-08-10T21:09:05.140Z,97182.44
2022-08-10T21:11:46.550Z,97183.72
2022-08-10T21:14:28.171Z,97178.09
2022-08-10T21:17:09.790Z,97172.19
2022-08-10T21:20:28.829Z,97177.28
2022-08-10T21:23:05.420Z,97177.28
2022-08-10T21:25:43.530Z,97169.31
2022-08-10T21:28:35.492Z,97171.16
2022-08-10T21:31:16.386Z,97174.31
2022-08-10T21:34:06.745Z,97169.25
2022-08-10T21:36:37.312Z,97176.16
2022-08-10T21:39:15.696Z,97170.84
2022-08-10T21:42:13.720Z,97175.34
2022-08-10T21:45:16.941Z,97174.81
2022-08-10T21:48:30.140Z,97172.38
2022-08-10T21:51:24.303Z,97171.00
2022-08-10T21:54:33.701Z,97175.53
2022-08-10T21:57:24.824Z,97169.97
2022-08-10T22:00:16.672Z,97166.25
2022-08-10T22:03:03.382Z,97170.28
2022-08-10T22:05:54.165Z,97171.63
2022-08-10T22:08:44.701Z,97169.53
2022-08-10T22:11:37.761Z,97169.06
2022-08-10T22:14:26.900Z,97168.34
2022-08-10T22:17:59.523Z,97169.69
2022-08-10T22:20:32.887Z,97168.41
2022-08-10T22:23:30.884Z,97172.91
2022-08-10T22:26:29.901Z,97173.72
2022-08-10T22:29:19.243Z,97165.19
2022-08-10T22:32:16.193Z,97164.63
2022-08-10T22:35:14.512Z,97161.16
2022-08-10T22:38:10.815Z,97157.38
2022-08-10T22:41:01.154Z,97167.72
2022-08-10T22:43:51.786Z,97163.09
2022-08-10T22:46:40.710Z,97161.44
2022-08-10T22:49:07.774Z,97158.94
2022-08-10T22:51:49.085Z,97162.31
2022-08-10T22:54:39.961Z,97154.25
2022-08-10T22:57:30.874Z,97155.19
2022-08-10T23:00:00.029Z,97155.38
2022-08-10T23:02:33.363Z,97153.44
2022-08-10T23:05:09.127Z,97156.31
2022-08-10T23:07:42.594Z,97151.75
2022-08-10T23:10:12.816Z,97152.81
2022-08-10T23:12:44.813Z,97146.34
2022-08-10T23:15:41.182Z,97151.34
2022-08-10T23:18:31.402Z,97140.41
2022-08-10T23:21:01.977Z,97145.94
2022-08-10T23:23:36.175Z,97142.72
2022-08-10T23:26:05.486Z,97148.84
2022-08-10T23:28:58.105Z,97147.22
2022-08-10T23:32:00.816Z,97146.09
2022-08-10T23:36:43.915Z,97143.94
2022-08-10T23:39:26.832Z,97143.09
2022-08-10T23:42:04.698Z,97144.41
2022-08-10T23:44:37.874Z,97144.31
2022-08-10T23:47:07.608Z,97154.94
2022-08-10T23:49:37.676Z,97148.25
2022-08-10T23:52:11.695Z,97144.78
2022-08-10T23:54:45.606Z,97139.72
2022-08-10T23:57:17.958Z,97144.69
2022-08-10T23:59:51.759Z,97149.66
